PWSweather.com
Personal Weather Stations
Station Observations

MakarauRodneyNZ

Lat: -36.52421, Lon: 174.47572

Elevation: 606

Station Type: Davis VP2

http://kaiparaweather.dynu.net/index.php

Latest ConditionsUpdated 9:10:01 PM GMT+12:12 Sunday, Oct 21, 2018
Currently Today's Max Today's Min Today's Average
Temperature 56.9°F13.8°C 70.5°F21.4°C 56.0°F13.3°C 62.3°F16.8°C
Dew Point 54.6°F12.6°C 60.1°F15.6°C 50.9°F10.5°C 55.4°F13.0°C
Winds Calm Calm 9.2 mph -14.8 kmh - - 1.6 mph 2.6 kmh
Wind Gusts -- 16.1 mph25.9 kmh - -
Humidity 92% 92% 63% 79%
Pressure 30.31 in1026.4 mb 30.34 in1027.4 mb 30.25 in1024.4 mb -
Hour Temp Dew Point Humidity Winds Wind Gusts Pressure Precip Precip Rate Daily Precip Total
09:10 PM 56.9°F13.8°C 54.6°F12.6°C 92% Calm Calm -- 30.31 in1026.4 mb - 0.00 in0.0 mm 0.00 in0.0 mm
09:00 PM 56.9°F13.8°C 54.6°F12.6°C 92% Calm Calm -- 30.31 in1026.4 mb - 0.00 in0.0 mm 0.00 in0.0 mm
08:50 PM 56.9°F13.8°C 54.6°F12.6°C 92% Calm Calm -- 30.31 in1026.4 mb - 0.00 in0.0 mm 0.00 in0.0 mm
08:40 PM 57.0°F13.9°C 54.7°F12.6°C 92% Calm Calm -- 30.30 in1026.1 mb - 0.00 in0.0 mm 0.00 in0.0 mm
08:30 PM 57.2°F14.0°C 54.9°F12.7°C 92% Calm Calm -- 30.30 in1026.1 mb - 0.00 in0.0 mm 0.00 in0.0 mm
08:20 PM 57.2°F14.0°C 54.6°F12.6°C 91% Calm Calm -- 30.30 in1026.1 mb - 0.00 in0.0 mm 0.00 in0.0 mm
08:10 PM 57.4°F14.1°C 54.7°F12.6°C 91% Calm Calm -- 30.30 in1026.1 mb - 0.00 in0.0 mm 0.00 in0.0 mm
08:00 PM 57.4°F14.1°C 54.8°F12.7°C 91% Calm Calm -- 30.30 in1026.1 mb - 0.00 in0.0 mm 0.00 in0.0 mm
07:50 PM 57.5°F14.2°C 54.6°F12.6°C 90% Calm Calm -- 30.29 in1025.7 mb - 0.00 in0.0 mm 0.00 in0.0 mm
07:40 PM 57.9°F14.4°C 55.0°F12.8°C 90% Calm Calm -- 30.29 in1025.7 mb - 0.00 in0.0 mm 0.00 in0.0 mm
07:30 PM 58.0°F14.4°C 55.1°F12.8°C 90% Calm Calm -- 30.29 in1025.7 mb - 0.00 in0.0 mm 0.00 in0.0 mm
07:20 PM 58.3°F14.6°C 55.1°F12.8°C 89% Calm Calm -- 30.28 in1025.4 mb - 0.00 in0.0 mm 0.00 in0.0 mm
07:10 PM 58.7°F14.8°C 55.5°F13.1°C 89% 3.5 mph SW5.6 kmh SW 4.6 mph7.4 kmh 30.28 in1025.4 mb - 0.00 in0.0 mm 0.00 in0.0 mm
07:00 PM 59.0°F15.0°C 55.4°F13.0°C 88% 5.8 mph SW9.3 kmh SW 9.2 mph14.8 kmh 30.27 in1025.1 mb - 0.00 in0.0 mm 0.00 in0.0 mm
06:50 PM 59.2°F15.1°C 55.6°F13.1°C 88% 6.9 mph SW11.1 kmh SW 10.4 mph16.7 kmh 30.27 in1025.1 mb - 0.00 in0.0 mm 0.00 in0.0 mm
06:40 PM 59.7°F15.4°C 55.5°F13.1°C 86% 5.8 mph SW9.3 kmh SW 8.1 mph13.0 kmh 30.27 in1025.1 mb - 0.00 in0.0 mm 0.00 in0.0 mm
06:30 PM 60.6°F15.9°C 56.1°F13.4°C 85% 5.8 mph SW9.3 kmh SW 5.8 mph9.3 kmh 30.26 in1024.7 mb - 0.00 in0.0 mm 0.00 in0.0 mm
06:20 PM 61.9°F16.6°C 56.7°F13.7°C 83% Calm Calm 1.2 mph1.9 kmh 30.26 in1024.7 mb - 0.00 in0.0 mm 0.00 in0.0 mm
06:10 PM 62.6°F17.0°C 57.0°F13.9°C 82% Calm Calm 3.5 mph5.6 kmh 30.26 in1024.7 mb - 0.00 in0.0 mm 0.00 in0.0 mm
06:00 PM 63.2°F17.3°C 57.6°F14.2°C 82% Calm Calm 3.5 mph5.6 kmh 30.26 in1024.7 mb - 0.00 in0.0 mm 0.00 in0.0 mm
05:50 PM 63.2°F17.3°C 57.6°F14.2°C 82% 1.2 mph NW1.9 kmh NW 6.9 mph11.1 kmh 30.26 in1024.7 mb - 0.00 in0.0 mm 0.00 in0.0 mm
05:40 PM 63.5°F17.5°C 57.3°F14.1°C 80% 1.2 mph WSW1.9 kmh WSW 3.5 mph5.6 kmh 30.26 in1024.7 mb - 0.00 in0.0 mm 0.00 in0.0 mm
05:30 PM 64.3°F17.9°C 58.0°F14.4°C 80% 4.6 mph SW7.4 kmh SW 9.2 mph14.8 kmh 30.25 in1024.4 mb - 0.00 in0.0 mm 0.00 in0.0 mm
05:20 PM 65.3°F18.5°C 58.6°F14.8°C 79% 2.3 mph WSW3.7 kmh WSW 3.5 mph5.6 kmh 30.25 in1024.4 mb - 0.00 in0.0 mm 0.00 in0.0 mm
05:10 PM 64.7°F18.2°C 57.7°F14.3°C 78% 1.2 mph SW1.9 kmh SW 3.5 mph5.6 kmh 30.25 in1024.4 mb - 0.00 in0.0 mm 0.00 in0.0 mm
05:00 PM 65.6°F18.7°C 58.2°F14.6°C 77% 3.5 mph WSW5.6 kmh WSW 5.8 mph9.3 kmh 30.25 in1024.4 mb - 0.00 in0.0 mm 0.00 in0.0 mm
04:50 PM 65.7°F18.7°C 58.3°F14.6°C 77% 3.5 mph SW5.6 kmh SW 3.5 mph5.6 kmh 30.25 in1024.4 mb - 0.00 in0.0 mm 0.00 in0.0 mm
04:40 PM 66.0°F18.9°C 58.2°F14.6°C 76% 3.5 mph WSW5.6 kmh WSW 8.1 mph13.0 kmh 30.25 in1024.4 mb - 0.00 in0.0 mm 0.00 in0.0 mm
04:30 PM 66.6°F19.2°C 58.8°F14.9°C 76% 3.5 mph WSW5.6 kmh WSW 5.8 mph9.3 kmh 30.25 in1024.4 mb - 0.00 in0.0 mm 0.00 in0.0 mm
04:20 PM 66.9°F19.4°C 58.3°F14.6°C 74% 3.5 mph SW5.6 kmh SW 5.8 mph9.3 kmh 30.25 in1024.4 mb - 0.00 in0.0 mm 0.00 in0.0 mm
04:10 PM 67.6°F19.8°C 59.4°F15.2°C 75% 3.5 mph SW5.6 kmh SW 10.4 mph16.7 kmh 30.25 in1024.4 mb - 0.00 in0.0 mm 0.00 in0.0 mm
04:00 PM 67.8°F19.9°C 59.2°F15.1°C 74% 2.3 mph WSW3.7 kmh WSW 6.9 mph11.1 kmh 30.26 in1024.7 mb - 0.00 in0.0 mm 0.00 in0.0 mm
03:50 PM 68.8°F20.4°C 59.8°F15.4°C 73% 5.8 mph WSW9.3 kmh WSW 11.5 mph18.5 kmh 30.26 in1024.7 mb - 0.00 in0.0 mm 0.00 in0.0 mm
03:40 PM 68.7°F20.4°C 59.3°F15.2°C 72% 2.3 mph WSW3.7 kmh WSW 8.1 mph13.0 kmh 30.26 in1024.7 mb - 0.00 in0.0 mm 0.00 in0.0 mm
03:30 PM 69.1°F20.6°C 59.7°F15.4°C 72% 9.2 mph NW14.8 kmh NW 13.8 mph22.2 kmh 30.26 in1024.7 mb - 0.00 in0.0 mm 0.00 in0.0 mm
03:20 PM 68.7°F20.4°C 60.1°F15.6°C 74% Calm Calm 5.8 mph9.3 kmh 30.26 in1024.7 mb - 0.00 in0.0 mm 0.00 in0.0 mm
03:10 PM 68.6°F20.3°C 58.8°F14.9°C 71% 4.6 mph W7.4 kmh W 11.5 mph18.5 kmh 30.26 in1024.7 mb - 0.00 in0.0 mm 0.00 in0.0 mm
03:00 PM 69.3°F20.7°C 59.5°F15.3°C 71% 9.2 mph NW14.8 kmh NW 13.8 mph22.2 kmh 30.26 in1024.7 mb - 0.00 in0.0 mm 0.00 in0.0 mm
02:50 PM 68.5°F20.3°C 59.1°F15.1°C 72% 2.3 mph WSW3.7 kmh WSW 4.6 mph7.4 kmh 30.26 in1024.7 mb - 0.00 in0.0 mm 0.00 in0.0 mm
02:40 PM 67.4°F19.7°C 59.6°F15.3°C 76% 3.5 mph W5.6 kmh W 11.5 mph18.5 kmh 30.27 in1025.1 mb - 0.00 in0.0 mm 0.00 in0.0 mm
02:30 PM 66.8°F19.3°C 59.0°F15.0°C 76% 4.6 mph WSW7.4 kmh WSW 6.9 mph11.1 kmh 30.27 in1025.1 mb - 0.00 in0.0 mm 0.00 in0.0 mm
02:20 PM 67.1°F19.5°C 58.6°F14.8°C 74% 1.2 mph SW1.9 kmh SW 4.6 mph7.4 kmh 30.28 in1025.4 mb - 0.00 in0.0 mm 0.00 in0.0 mm
02:10 PM 67.0°F19.4°C 58.8°F14.9°C 75% 1.2 mph WSW1.9 kmh WSW 4.6 mph7.4 kmh 30.28 in1025.4 mb - 0.00 in0.0 mm 0.00 in0.0 mm
02:00 PM 68.0°F20.0°C 58.6°F14.8°C 72% 4.6 mph SW7.4 kmh SW 9.2 mph14.8 kmh 30.28 in1025.4 mb - 0.00 in0.0 mm 0.00 in0.0 mm
01:50 PM 67.0°F19.4°C 58.1°F14.5°C 73% 5.8 mph WSW9.3 kmh WSW 11.5 mph18.5 kmh 30.28 in1025.4 mb - 0.00 in0.0 mm 0.00 in0.0 mm
01:40 PM 67.7°F19.8°C 58.3°F14.6°C 72% 2.3 mph WSW3.7 kmh WSW 9.2 mph14.8 kmh 30.28 in1025.4 mb - 0.00 in0.0 mm 0.00 in0.0 mm
01:30 PM 67.8°F19.9°C 58.1°F14.5°C 71% 1.2 mph SW1.9 kmh SW 10.4 mph16.7 kmh 30.29 in1025.7 mb - 0.00 in0.0 mm 0.00 in0.0 mm
01:20 PM 69.2°F20.7°C 58.5°F14.7°C 69% 4.6 mph NW7.4 kmh NW 16.1 mph25.9 kmh 30.29 in1025.7 mb - 0.00 in0.0 mm 0.00 in0.0 mm
01:10 PM 69.2°F20.7°C 59.0°F15.0°C 70% 2.3 mph NW3.7 kmh NW 11.5 mph18.5 kmh 30.29 in1025.7 mb - 0.00 in0.0 mm 0.00 in0.0 mm
01:00 PM 69.5°F20.8°C 59.3°F15.2°C 70% Calm Calm -- 30.30 in1026.1 mb - 0.00 in0.0 mm 0.00 in0.0 mm
12:50 PM 68.9°F20.5°C 57.9°F14.4°C 68% 3.5 mph WNW5.6 kmh WNW 8.1 mph13.0 kmh 30.30 in1026.1 mb - 0.00 in0.0 mm 0.00 in0.0 mm
12:40 PM 68.3°F20.2°C 57.4°F14.1°C 68% 5.8 mph NNW9.3 kmh NNW 9.2 mph14.8 kmh 30.30 in1026.1 mb - 0.00 in0.0 mm 0.00 in0.0 mm
12:30 PM 68.1°F20.1°C 57.9°F14.4°C 70% 5.8 mph NNW9.3 kmh NNW 13.8 mph22.2 kmh 30.30 in1026.1 mb - 0.00 in0.0 mm 0.00 in0.0 mm
12:20 PM 70.1°F21.2°C 58.2°F14.6°C 66% 6.9 mph NNW11.1 kmh NNW 9.2 mph14.8 kmh 30.30 in1026.1 mb - 0.00 in0.0 mm 0.00 in0.0 mm
12:10 PM 69.4°F20.8°C 58.0°F14.4°C 67% 4.6 mph NNW7.4 kmh NNW 5.8 mph9.3 kmh 30.30 in1026.1 mb - 0.00 in0.0 mm 0.00 in0.0 mm
12:00 PM 69.2°F20.7°C 57.3°F14.1°C 66% 3.5 mph N5.6 kmh N 8.1 mph13.0 kmh 30.30 in1026.1 mb - 0.00 in0.0 mm 0.00 in0.0 mm
11:50 AM 69.1°F20.6°C 57.3°F14.1°C 66% 5.8 mph N9.3 kmh N 12.7 mph20.4 kmh 30.30 in1026.1 mb - 0.00 in0.0 mm 0.00 in0.0 mm
11:40 AM 69.5°F20.8°C 58.1°F14.5°C 67% 4.6 mph NNW7.4 kmh NNW 5.8 mph9.3 kmh 30.30 in1026.1 mb - 0.00 in0.0 mm 0.00 in0.0 mm
11:30 AM 68.0°F20.0°C 57.9°F14.4°C 70% 2.3 mph NW3.7 kmh NW 6.9 mph11.1 kmh 30.31 in1026.4 mb - 0.00 in0.0 mm 0.00 in0.0 mm
11:20 AM 68.5°F20.3°C 57.1°F13.9°C 67% 3.5 mph SW5.6 kmh SW 4.6 mph7.4 kmh 30.31 in1026.4 mb - 0.00 in0.0 mm 0.00 in0.0 mm
11:10 AM 69.0°F20.6°C 57.5°F14.2°C 67% 2.3 mph WSW3.7 kmh WSW 3.5 mph5.6 kmh 30.31 in1026.4 mb - 0.00 in0.0 mm 0.00 in0.0 mm
11:00 AM 70.0°F21.1°C 58.1°F14.5°C 66% 3.5 mph NW5.6 kmh NW 10.4 mph16.7 kmh 30.31 in1026.4 mb - 0.00 in0.0 mm 0.00 in0.0 mm
10:50 AM 70.5°F21.4°C 58.2°F14.6°C 65% 2.3 mph NNW3.7 kmh NNW 3.5 mph5.6 kmh 30.31 in1026.4 mb - 0.00 in0.0 mm 0.00 in0.0 mm
10:40 AM 70.2°F21.2°C 59.1°F15.1°C 68% Calm Calm 3.5 mph5.6 kmh 30.31 in1026.4 mb - 0.00 in0.0 mm 0.00 in0.0 mm
10:30 AM 70.2°F21.2°C 57.9°F14.4°C 65% 4.6 mph NNW7.4 kmh NNW 12.7 mph20.4 kmh 30.32 in1026.8 mb - 0.00 in0.0 mm 0.00 in0.0 mm
10:20 AM 69.6°F20.9°C 58.6°F14.8°C 68% 2.3 mph NNW3.7 kmh NNW 3.5 mph5.6 kmh 30.32 in1026.8 mb - 0.00 in0.0 mm 0.00 in0.0 mm
10:10 AM 69.0°F20.6°C 57.1°F13.9°C 66% 1.2 mph NNE1.9 kmh NNE 4.6 mph7.4 kmh 30.32 in1026.8 mb - 0.00 in0.0 mm 0.00 in0.0 mm
10:00 AM 67.9°F19.9°C 55.7°F13.2°C 65% 1.2 mph NNW1.9 kmh NNW 5.8 mph9.3 kmh 30.32 in1026.8 mb - 0.00 in0.0 mm 0.00 in0.0 mm
09:50 AM 68.4°F20.2°C 55.3°F12.9°C 63% Calm Calm 3.5 mph5.6 kmh 30.32 in1026.8 mb - 0.00 in0.0 mm 0.00 in0.0 mm
09:40 AM 67.7°F19.8°C 55.5°F13.1°C 65% 2.3 mph NNW3.7 kmh NNW 5.8 mph9.3 kmh 30.33 in1027.1 mb - 0.00 in0.0 mm 0.00 in0.0 mm
09:30 AM 67.8°F19.9°C 57.7°F14.3°C 70% 1.2 mph NNW1.9 kmh NNW 4.6 mph7.4 kmh 30.33 in1027.1 mb - 0.00 in0.0 mm 0.00 in0.0 mm
09:20 AM 67.1°F19.5°C 57.7°F14.3°C 72% 2.3 mph NNW3.7 kmh NNW 3.5 mph5.6 kmh 30.32 in1026.8 mb - 0.00 in0.0 mm 0.00 in0.0 mm
09:10 AM 65.7°F18.7°C 56.8°F13.8°C 73% 4.6 mph WSW7.4 kmh WSW 4.6 mph7.4 kmh 30.33 in1027.1 mb - 0.00 in0.0 mm 0.00 in0.0 mm
09:00 AM 65.0°F18.3°C 56.5°F13.6°C 74% Calm Calm 5.8 mph9.3 kmh 30.33 in1027.1 mb - 0.00 in0.0 mm 0.00 in0.0 mm
08:50 AM 64.3°F17.9°C 56.2°F13.4°C 75% 2.3 mph NNW3.7 kmh NNW 5.8 mph9.3 kmh 30.33 in1027.1 mb - 0.00 in0.0 mm 0.00 in0.0 mm
08:40 AM 63.9°F17.7°C 55.4°F13.0°C 74% Calm Calm -- 30.33 in1027.1 mb - 0.00 in0.0 mm 0.00 in0.0 mm
08:30 AM 62.9°F17.2°C 55.6°F13.1°C 77% Calm Calm -- 30.33 in1027.1 mb - 0.00 in0.0 mm 0.00 in0.0 mm
08:20 AM 62.1°F16.7°C 55.1°F12.8°C 78% Calm Calm -- 30.33 in1027.1 mb - 0.00 in0.0 mm 0.00 in0.0 mm
08:10 AM 61.5°F16.4°C 55.6°F13.1°C 81% Calm Calm -- 30.33 in1027.1 mb - 0.00 in0.0 mm 0.00 in0.0 mm
08:00 AM 60.7°F15.9°C 55.2°F12.9°C 82% Calm Calm -- 30.33 in1027.1 mb - 0.00 in0.0 mm 0.00 in0.0 mm
07:50 AM 60.1°F15.6°C 55.2°F12.9°C 84% Calm Calm 2.3 mph3.7 kmh 30.33 in1027.1 mb - 0.00 in0.0 mm 0.00 in0.0 mm
07:40 AM 59.6°F15.3°C 54.7°F12.6°C 84% Calm Calm -- 30.33 in1027.1 mb - 0.00 in0.0 mm 0.00 in0.0 mm
07:30 AM 59.3°F15.2°C 54.8°F12.7°C 85% Calm Calm -- 30.33 in1027.1 mb - 0.00 in0.0 mm 0.00 in0.0 mm
07:20 AM 59.0°F15.0°C 54.8°F12.7°C 86% Calm Calm 3.5 mph5.6 kmh 30.32 in1026.8 mb - 0.00 in0.0 mm 0.00 in0.0 mm
07:10 AM 58.6°F14.8°C 54.4°F12.4°C 86% Calm Calm -- 30.32 in1026.8 mb - 0.00 in0.0 mm 0.00 in0.0 mm
07:00 AM 58.4°F14.7°C 54.2°F12.3°C 86% Calm Calm -- 30.32 in1026.8 mb - 0.00 in0.0 mm 0.00 in0.0 mm
06:50 AM 58.1°F14.5°C 53.9°F12.2°C 86% Calm Calm 3.5 mph5.6 kmh 30.32 in1026.8 mb - 0.00 in0.0 mm 0.00 in0.0 mm
06:40 AM 57.7°F14.3°C 53.6°F12.0°C 86% Calm Calm -- 30.32 in1026.8 mb - 0.00 in0.0 mm 0.00 in0.0 mm
06:30 AM 57.4°F14.1°C 53.2°F11.8°C 86% Calm Calm -- 30.32 in1026.8 mb - 0.00 in0.0 mm 0.00 in0.0 mm
06:20 AM 56.9°F13.8°C 52.4°F11.3°C 85% Calm Calm -- 30.32 in1026.8 mb - 0.00 in0.0 mm 0.00 in0.0 mm
06:10 AM 56.6°F13.7°C 52.1°F11.2°C 85% Calm Calm -- 30.32 in1026.8 mb - 0.00 in0.0 mm 0.00 in0.0 mm
06:00 AM 56.5°F13.6°C 51.7°F10.9°C 84% Calm Calm -- 30.32 in1026.8 mb - 0.00 in0.0 mm 0.00 in0.0 mm
05:50 AM 56.4°F13.6°C 51.6°F10.9°C 84% Calm Calm -- 30.32 in1026.8 mb - 0.00 in0.0 mm 0.00 in0.0 mm
05:40 AM 56.3°F13.5°C 51.5°F10.8°C 84% Calm Calm 1.2 mph1.9 kmh 30.31 in1026.4 mb - 0.00 in0.0 mm 0.00 in0.0 mm
05:30 AM 56.1°F13.4°C 51.3°F10.7°C 84% Calm Calm -- 30.31 in1026.4 mb - 0.00 in0.0 mm 0.00 in0.0 mm
05:20 AM 56.0°F13.3°C 50.9°F10.5°C 83% Calm Calm 1.2 mph1.9 kmh 30.31 in1026.4 mb - 0.00 in0.0 mm 0.00 in0.0 mm
05:10 AM 56.2°F13.4°C 51.1°F10.6°C 83% Calm Calm -- 30.31 in1026.4 mb - 0.00 in0.0 mm 0.00 in0.0 mm
05:00 AM 56.5°F13.6°C 51.4°F10.8°C 83% 1.2 mph N1.9 kmh N 5.8 mph9.3 kmh 30.31 in1026.4 mb - 0.00 in0.0 mm 0.00 in0.0 mm
04:50 AM 56.8°F13.8°C 51.4°F10.8°C 82% 1.2 mph N1.9 kmh N 3.5 mph5.6 kmh 30.31 in1026.4 mb - 0.00 in0.0 mm 0.00 in0.0 mm
04:40 AM 57.0°F13.9°C 51.6°F10.9°C 82% Calm Calm -- 30.31 in1026.4 mb - 0.00 in0.0 mm 0.00 in0.0 mm
04:30 AM 57.1°F13.9°C 51.4°F10.8°C 81% Calm Calm -- 30.31 in1026.4 mb - 0.00 in0.0 mm 0.00 in0.0 mm
04:20 AM 57.2°F14.0°C 51.4°F10.8°C 81% Calm Calm -- 30.31 in1026.4 mb - 0.00 in0.0 mm 0.00 in0.0 mm
04:10 AM 57.1°F13.9°C 51.3°F10.7°C 81% Calm Calm -- 30.31 in1026.4 mb - 0.00 in0.0 mm 0.00 in0.0 mm
04:00 AM 57.0°F13.9°C 51.6°F10.9°C 82% Calm Calm -- 30.31 in1026.4 mb - 0.00 in0.0 mm 0.00 in0.0 mm
03:50 AM 57.1°F13.9°C 52.0°F11.1°C 83% Calm Calm -- 30.31 in1026.4 mb - 0.00 in0.0 mm 0.00 in0.0 mm
03:40 AM 57.1°F13.9°C 52.0°F11.1°C 83% Calm Calm -- 30.31 in1026.4 mb - 0.00 in0.0 mm 0.00 in0.0 mm
03:30 AM 57.1°F13.9°C 52.3°F11.3°C 84% Calm Calm -- 30.31 in1026.4 mb - 0.00 in0.0 mm 0.00 in0.0 mm
03:20 AM 57.1°F13.9°C 52.3°F11.3°C 84% Calm Calm -- 30.31 in1026.4 mb - 0.00 in0.0 mm 0.00 in0.0 mm
03:10 AM 57.2°F14.0°C 52.4°F11.3°C 84% Calm Calm -- 30.31 in1026.4 mb - 0.00 in0.0 mm 0.00 in0.0 mm
03:00 AM 57.2°F14.0°C 52.4°F11.3°C 84% Calm Calm -- 30.32 in1026.8 mb - 0.00 in0.0 mm 0.00 in0.0 mm
02:50 AM 57.1°F13.9°C 52.3°F11.3°C 84% Calm Calm -- 30.32 in1026.8 mb - 0.00 in0.0 mm 0.00 in0.0 mm
02:40 AM 57.1°F13.9°C 52.0°F11.1°C 83% Calm Calm -- 30.32 in1026.8 mb - 0.00 in0.0 mm 0.00 in0.0 mm
02:30 AM 57.2°F14.0°C 52.1°F11.2°C 83% Calm Calm -- 30.32 in1026.8 mb - 0.00 in0.0 mm 0.00 in0.0 mm
02:20 AM 57.2°F14.0°C 52.1°F11.2°C 83% Calm Calm -- 30.32 in1026.8 mb - 0.00 in0.0 mm 0.00 in0.0 mm
02:10 AM 57.3°F14.1°C 52.2°F11.2°C 83% Calm Calm -- 30.32 in1026.8 mb - 0.00 in0.0 mm 0.00 in0.0 mm
02:00 AM 57.4°F14.1°C 52.3°F11.3°C 83% Calm Calm -- 30.32 in1026.8 mb - 0.00 in0.0 mm 0.00 in0.0 mm
01:50 AM 57.4°F14.1°C 52.3°F11.3°C 83% Calm Calm -- 30.32 in1026.8 mb - 0.00 in0.0 mm 0.00 in0.0 mm
01:40 AM 57.6°F14.2°C 52.1°F11.2°C 82% Calm Calm -- 30.32 in1026.8 mb - 0.00 in0.0 mm 0.00 in0.0 mm
01:30 AM 57.8°F14.3°C 52.4°F11.3°C 82% Calm Calm -- 30.32 in1026.8 mb - 0.00 in0.0 mm 0.00 in0.0 mm
01:20 AM 58.1°F14.5°C 52.3°F11.3°C 81% Calm Calm -- 30.33 in1027.1 mb - 0.00 in0.0 mm 0.00 in0.0 mm
01:10 AM 58.5°F14.7°C 52.3°F11.3°C 80% Calm Calm -- 30.33 in1027.1 mb - 0.00 in0.0 mm 0.00 in0.0 mm
01:00 AM 58.8°F14.9°C 52.7°F11.5°C 80% Calm Calm -- 30.33 in1027.1 mb - 0.00 in0.0 mm 0.00 in0.0 mm
12:50 AM 59.1°F15.1°C 51.9°F11.1°C 77% Calm Calm -- 30.33 in1027.1 mb - 0.00 in0.0 mm 0.00 in0.0 mm
12:40 AM 59.1°F15.1°C 51.5°F10.8°C 76% Calm Calm -- 30.33 in1027.1 mb - 0.00 in0.0 mm 0.00 in0.0 mm
12:30 AM 59.1°F15.1°C 51.5°F10.8°C 76% Calm Calm -- 30.34 in1027.4 mb - 0.00 in0.0 mm 0.00 in0.0 mm
12:20 AM 58.9°F14.9°C 51.3°F10.7°C 76% 3.5 mph SSE5.6 kmh SSE 3.5 mph5.6 kmh 30.34 in1027.4 mb - 0.00 in0.0 mm 0.00 in0.0 mm
12:10 AM 58.6°F14.8°C 51.7°F10.9°C 78% Calm Calm -- 30.34 in1027.4 mb - 0.00 in0.0 mm 0.00 in0.0 mm
12:00 AM 58.5°F14.7°C 52.0°F11.1°C 79% Calm Calm -- 30.34 in1027.4 mb - 0.00 in0.0 mm 0.00 in0.0 mm